Tessa Pg — MJBU6 — position and weather

sailwx.info

Track history (hours):
 
Tides and Currents Weather Stations Pressure Air Temp Water Temp Dewpoint Dewpoint Depression Visibility Wind Speed Wind Dir Waves Ship Positions

Tessa Pg

Last reported at 2018-May-22 08:18 UTC. Time now 2018-May-22 17:35 UTC.
Position N 14°34' W 061°05'.

Length 122 m; draft 5.8 m.

Type: Tanker. MMSI: 235009020.

Date/timePositionNaut miles runAvg speedWind from/ knotsBaromVisibWave heightAir tempDewpointWater temp
2018-May-22 08:18N 14°34' W 061°05'0 0.0
2018-May-22 08:00N 14°34' W 061°05'0 0.0
2018-May-22 06:36N 14°34' W 061°05'0 0.0
2018-May-21 20:12N 14°34' W 061°05'0 0.1
2018-May-21 20:00N 14°34' W 061°05'0 0.2
2018-May-21 19:29N 14°34' W 061°05'2 2.9
2018-May-21 18:57N 14°35' W 061°07'510.2
2018-May-21 18:30N 14°37' W 061°11'510.7
2018-May-21 18:00N 14°40' W 061°16'  
2018-May-18 13:52N 14°09' W 061°08'512.5
2018-May-18 13:29N 14°06' W 061°05'3 1.5
2018-May-18 11:37N 14°08' W 061°04'213.2
2018-May-18 11:26N 14°10' W 061°05'612.8
2018-May-18 11:00N 14°15' W 061°08'713.2
2018-May-18 10:30N 14°21' W 061°10'714.5
2018-May-18 10:00N 14°28' W 061°10'713.5
2018-May-18 09:30N 14°35' W 061°07'4 9.1
2018-May-18 09:00N 14°35' W 061°02'1 0.1
2018-May-17 23:34N 14°36' W 061°02'0 1.1
2018-May-17 23:30N 14°36' W 061°02'2 4.5
2018-May-17 22:59N 14°34' W 061°03'2 3.2
2018-May-17 22:30N 14°36' W 061°04'0 0.0
2018-May-17 17:23N 14°36' W 061°04'0 0.1
2018-May-17 17:00N 14°36' W 061°04'3 5.8
2018-May-17 16:30N 14°35' W 061°07'612.7
2018-May-17 16:00N 14°36' W 061°13'611.8
2018-May-17 15:30N 14°40' W 061°18'17012.9
2018-May-17 02:22N 17°04' W 062°52'2911.7
2018-May-16 23:50N 17°30' W 063°05'511.4
2018-May-16 23:24N 17°35' W 063°05'611.2
2018-May-16 22:53N 17°41' W 063°06'511.1
2018-May-16 22:24N 17°46' W 063°07'511.2
2018-May-16 21:56N 17°51' W 063°09'611.7
2018-May-16 21:25N 17°57' W 063°10'611.9
2018-May-16 20:57N 18°03' W 063°11'5 9.6
2018-May-16 20:26N 18°05' W 063°07'2 2.9
2018-May-16 19:55N 18°05' W 063°05'0 0.0
2018-May-16 19:25N 18°05' W 063°05'0 0.0
2018-May-16 18:55N 18°05' W 063°05'0 0.0
2018-May-16 18:25N 18°05' W 063°05'0 0.0
2018-May-16 17:55N 18°05' W 063°05'0 0.0
2018-May-16 17:25N 18°05' W 063°05'0 0.0
2018-May-16 16:55N 18°05' W 063°05'0 0.0
2018-May-16 16:28N 18°05' W 063°05'0 0.0
2018-May-16 15:43N 18°05' W 063°05'0 0.0
2018-May-16 15:28N 18°05' W 063°05'0 0.0
2018-May-16 14:49N 18°05' W 063°05'0 0.0
2018-May-16 14:19N 18°05' W 063°05'0 0.0
2018-May-16 13:58N 18°05' W 063°05'0 0.0
2018-May-16 13:19N 18°05' W 063°05'0 0.0
2018-May-16 12:46N 18°05' W 063°05'0 0.0
2018-May-16 12:19N 18°05' W 063°05'0 0.0
2018-May-16 11:49N 18°05' W 063°05'0 0.0
2018-May-16 11:19N 18°05' W 063°05'0 0.0
2018-May-16 10:57N 18°05' W 063°05'0 0.4
2018-May-16 10:30N 18°05' W 063°05'1 1.9
2018-May-16 09:58N 18°05' W 063°06'0 0.0
2018-May-16 09:28N 18°05' W 063°06'0 0.0
2018-May-16 08:43N 18°05' W 063°06'0 0.0
2018-May-16 08:19N 18°05' W 063°06'0 0.0
2018-May-16 07:49N 18°05' W 063°06'0 0.0
2018-May-16 07:20N 18°05' W 063°06'0 0.0
2018-May-16 06:49N 18°05' W 063°06'0 0.0
2018-May-16 06:19N 18°05' W 063°06'0 0.0
2018-May-16 05:52N 18°05' W 063°06'0 0.0
2018-May-16 05:19N 18°05' W 063°06'0 0.0
2018-May-16 04:53N 18°05' W 063°06'0 0.0
2018-May-16 04:20N 18°05' W 063°06'0 0.0
2018-May-16 03:56N 18°05' W 063°06'0 0.0
2018-May-16 03:19N 18°05' W 063°06'0 0.0
2018-May-16 02:55N 18°05' W 063°06'0 0.0
2018-May-16 02:25N 18°05' W 063°06'0 0.0
2018-May-16 01:55N 18°05' W 063°06'0 0.0
2018-May-16 01:25N 18°05' W 063°06'0 0.0
2018-May-16 00:55N 18°05' W 063°06'0 0.0
2018-May-16 00:28N 18°05' W 063°06'0 0.0
2018-May-15 23:55N 18°05' W 063°06'0 0.0
2018-May-15 23:29N 18°05' W 063°06'0 0.0
2018-May-15 22:56N 18°05' W 063°06'0 0.0
2018-May-15 22:26N 18°05' W 063°06'0 0.0
2018-May-15 21:58N 18°05' W 063°06'1 2.0
2018-May-15 21:30N 18°06' W 063°07'5 7.2
2018-May-15 20:49N 18°01' W 063°10'513.0
2018-May-15 20:28N 17°58' W 063°06'912.6
2018-May-15 19:43N 17°55' W 062°57'4 0.4
2018-May-15 10:03N 17°54' W 062°53'1 6.2
2018-May-15 09:49N 17°54' W 062°54'4 8.8
2018-May-15 09:23N 17°52' W 062°57'410.5
2018-May-15 09:00N 17°48' W 062°59'610.8
2018-May-15 08:26N 17°42' W 063°01'511.0
2018-May-15 08:00N 17°38' W 063°03'611.6
2018-May-15 07:30N 17°33' W 063°05'2412.7
2018-May-15 05:36N 17°10' W 062°56'612.8
2018-May-15 05:08N 17°05' W 062°52'2812.6
2018-May-15 02:56N 16°42' W 062°36'512.4
2018-May-15 02:30N 16°37' W 062°33'1012.5
2018-May-15 01:44N 16°29' W 062°28'412.1
2018-May-15 01:22N 16°26' W 062°26'512.0
2018-May-15 00:59N 16°22' W 062°23'7511.8
2018-May-14 18:36N 15°18' W 061°41'4812.9
2018-May-14 14:53N 14°38' W 061°14'512.9
2018-May-14 14:30N 14°36' W 061°10'4 7.8
2018-May-14 13:59N 14°34' W 061°06'0 0.0
2018-May-13 09:43N 14°34' W 061°06'0 0.0
2018-May-13 09:16N 14°34' W 061°06'0 0.0
2018-May-13 08:46N 14°34' W 061°06'0 0.0
2018-May-13 08:22N 14°34' W 061°06'0 0.0
2018-May-12 21:52N 14°34' W 061°06'0 0.0
2018-May-12 20:37N 14°34' W 061°06'0 0.0
2018-May-12 20:19N 14°34' W 061°06'  
Track history (hours):
 
Tides and Currents Weather Stations Pressure Air Temp Water Temp Dewpoint Dewpoint Depression Visibility Wind Speed Wind Dir Waves Ship Positions

Tessa Pg

Last reported at 2018-May-22 08:18 UTC. Time now 2018-May-22 17:35 UTC.
Position N 14°34' W 061°05'.

Length 122 m; draft 5.8 m.

Type: Tanker. MMSI: 235009020.

Date/timePositionNaut miles runAvg speedWind from/ knotsBaromVisibWave heightAir tempDewpointWater temp
2018-May-22 08:18N 14°34' W 061°05'0 0.0
2018-May-22 08:00N 14°34' W 061°05'0 0.0
2018-May-22 06:36N 14°34' W 061°05'0 0.0
2018-May-21 20:12N 14°34' W 061°05'0 0.1
2018-May-21 20:00N 14°34' W 061°05'0 0.2
2018-May-21 19:29N 14°34' W 061°05'2 2.9
2018-May-21 18:57N 14°35' W 061°07'510.2
2018-May-21 18:30N 14°37' W 061°11'510.7
2018-May-21 18:00N 14°40' W 061°16'  
2018-May-18 13:52N 14°09' W 061°08'512.5
2018-May-18 13:29N 14°06' W 061°05'3 1.5
2018-May-18 11:37N 14°08' W 061°04'213.2
2018-May-18 11:26N 14°10' W 061°05'612.8
2018-May-18 11:00N 14°15' W 061°08'713.2
2018-May-18 10:30N 14°21' W 061°10'714.5
2018-May-18 10:00N 14°28' W 061°10'713.5
2018-May-18 09:30N 14°35' W 061°07'4 9.1
2018-May-18 09:00N 14°35' W 061°02'1 0.1
2018-May-17 23:34N 14°36' W 061°02'0 1.1
2018-May-17 23:30N 14°36' W 061°02'2 4.5
2018-May-17 22:59N 14°34' W 061°03'2 3.2
2018-May-17 22:30N 14°36' W 061°04'0 0.0
2018-May-17 17:23N 14°36' W 061°04'0 0.1
2018-May-17 17:00N 14°36' W 061°04'3 5.8
2018-May-17 16:30N 14°35' W 061°07'612.7
2018-May-17 16:00N 14°36' W 061°13'611.8
2018-May-17 15:30N 14°40' W 061°18'17012.9
2018-May-17 02:22N 17°04' W 062°52'2911.7
2018-May-16 23:50N 17°30' W 063°05'511.4
2018-May-16 23:24N 17°35' W 063°05'611.2
2018-May-16 22:53N 17°41' W 063°06'511.1
2018-May-16 22:24N 17°46' W 063°07'511.2
2018-May-16 21:56N 17°51' W 063°09'611.7
2018-May-16 21:25N 17°57' W 063°10'611.9
2018-May-16 20:57N 18°03' W 063°11'5 9.6
2018-May-16 20:26N 18°05' W 063°07'2 2.9
2018-May-16 19:55N 18°05' W 063°05'0 0.0
2018-May-16 19:25N 18°05' W 063°05'0 0.0
2018-May-16 18:55N 18°05' W 063°05'0 0.0
2018-May-16 18:25N 18°05' W 063°05'0 0.0
2018-May-16 17:55N 18°05' W 063°05'0 0.0
2018-May-16 17:25N 18°05' W 063°05'0 0.0
2018-May-16 16:55N 18°05' W 063°05'0 0.0
2018-May-16 16:28N 18°05' W 063°05'0 0.0
2018-May-16 15:43N 18°05' W 063°05'0 0.0
2018-May-16 15:28N 18°05' W 063°05'0 0.0
2018-May-16 14:49N 18°05' W 063°05'0 0.0
2018-May-16 14:19N 18°05' W 063°05'0 0.0
2018-May-16 13:58N 18°05' W 063°05'0 0.0
2018-May-16 13:19N 18°05' W 063°05'0 0.0
2018-May-16 12:46N 18°05' W 063°05'0 0.0
2018-May-16 12:19N 18°05' W 063°05'0 0.0
2018-May-16 11:49N 18°05' W 063°05'0 0.0
2018-May-16 11:19N 18°05' W 063°05'0 0.0
2018-May-16 10:57N 18°05' W 063°05'0 0.4
2018-May-16 10:30N 18°05' W 063°05'1 1.9
2018-May-16 09:58N 18°05' W 063°06'0 0.0
2018-May-16 09:28N 18°05' W 063°06'0 0.0
2018-May-16 08:43N 18°05' W 063°06'0 0.0
2018-May-16 08:19N 18°05' W 063°06'0 0.0
2018-May-16 07:49N 18°05' W 063°06'0 0.0
2018-May-16 07:20N 18°05' W 063°06'0 0.0
2018-May-16 06:49N 18°05' W 063°06'0 0.0
2018-May-16 06:19N 18°05' W 063°06'0 0.0
2018-May-16 05:52N 18°05' W 063°06'0 0.0
2018-May-16 05:19N 18°05' W 063°06'0 0.0
2018-May-16 04:53N 18°05' W 063°06'0 0.0
2018-May-16 04:20N 18°05' W 063°06'0 0.0
2018-May-16 03:56N 18°05' W 063°06'0 0.0
2018-May-16 03:19N 18°05' W 063°06'0 0.0
2018-May-16 02:55N 18°05' W 063°06'0 0.0
2018-May-16 02:25N 18°05' W 063°06'0 0.0
2018-May-16 01:55N 18°05' W 063°06'0 0.0
2018-May-16 01:25N 18°05' W 063°06'0 0.0
2018-May-16 00:55N 18°05' W 063°06'0 0.0
2018-May-16 00:28N 18°05' W 063°06'0 0.0
2018-May-15 23:55N 18°05' W 063°06'0 0.0
2018-May-15 23:29N 18°05' W 063°06'0 0.0
2018-May-15 22:56N 18°05' W 063°06'0 0.0
2018-May-15 22:26N 18°05' W 063°06'0 0.0
2018-May-15 21:58N 18°05' W 063°06'1 2.0
2018-May-15 21:30N 18°06' W 063°07'5 7.2
2018-May-15 20:49N 18°01' W 063°10'513.0
2018-May-15 20:28N 17°58' W 063°06'912.6
2018-May-15 19:43N 17°55' W 062°57'4 0.4
2018-May-15 10:03N 17°54' W 062°53'1 6.2
2018-May-15 09:49N 17°54' W 062°54'4 8.8
2018-May-15 09:23N 17°52' W 062°57'410.5
2018-May-15 09:00N 17°48' W 062°59'610.8
2018-May-15 08:26N 17°42' W 063°01'511.0
2018-May-15 08:00N 17°38' W 063°03'611.6
2018-May-15 07:30N 17°33' W 063°05'2412.7
2018-May-15 05:36N 17°10' W 062°56'612.8
2018-May-15 05:08N 17°05' W 062°52'2812.6
2018-May-15 02:56N 16°42' W 062°36'512.4
2018-May-15 02:30N 16°37' W 062°33'1012.5
2018-May-15 01:44N 16°29' W 062°28'412.1
2018-May-15 01:22N 16°26' W 062°26'512.0
2018-May-15 00:59N 16°22' W 062°23'7511.8
2018-May-14 18:36N 15°18' W 061°41'4812.9
2018-May-14 14:53N 14°38' W 061°14'512.9
2018-May-14 14:30N 14°36' W 061°10'4 7.8
2018-May-14 13:59N 14°34' W 061°06'0 0.0
2018-May-13 09:43N 14°34' W 061°06'0 0.0
2018-May-13 09:16N 14°34' W 061°06'0 0.0
2018-May-13 08:46N 14°34' W 061°06'0 0.0
2018-May-13 08:22N 14°34' W 061°06'0 0.0
2018-May-12 21:52N 14°34' W 061°06'0 0.0
2018-May-12 20:37N 14°34' W 061°06'0 0.0
2018-May-12 20:19N 14°34' W 061°06'  

Dump ship's entire track history